Bowerman Airport Hoquiam US
ICAO: KHQM
IATA: HQM
Category: Medium
Scheduled Services: No

Elevation: 18 ft
TransAlt. 18000 ft.

Airport Communications:
ASOS:135.775
SEATTLE CNTR:128.3
SEATTLE RDO:122.2
CTAF/UNICOM:122.7

KHQM Zoom In..

If you have problems with the map follow the link
https://www.worldairports.se/pages/airport.php?
ICAO=KHQM

Runways:

(A) RW 06 length 5000 ft width 150 ft
---- / hdg 60

(B) RW 24 length 5000 ft width 150 ft
ILS 108.70 / hdg 240

Location; KHQM
Day. 27 / Time. 05.16 Zulu
* Altimeter: 30.04
* Temperature: 09° c. 48.2°f.
* Wind from: 240° Speed 14 kn.
Dewpoint: 08° c.
Visibility: 10 Statute Miles.
Clouds: Scattered 1800 ft.
Clouds: Broken 3100 ft.
Clouds: Broken 4000 ft.
Conditions: Light Rain.

KHQM 270516Z AUTO 24014KT 10SM -RA SCT018 BKN031 BKN040 09/08 A3004 RMK AO2 RAB14 P0000 T00890078 $


Wind From 240°
Speed 14 kn.

 
 
jpsmedia worldairports.se 2020   terms of use